Time;durP1;ratioP1;P1;durP2;ratioP2;P2;SDS_P1;SDS_P2;PMS_P1;PMS_P2;Temp;Humidity;BMP_temperature;BMP_pressure;BME280_temperature;BME280_humidity;BME280_pressure;Samples;Min_cycle;Max_cycle;Signal;HPM_P1;HPM_P2
2023/03/16 00:01:20;;;;;;;0.00;0.00;;;;;;;7.18;54.94;94260.72;5069653;28;20287;-59
2023/03/16 00:03:47;;;;;;;0.00;0.00;;;;;;;7.03;55.31;94255.38;5068851;28;20222;-60
2023/03/16 00:06:14;;;;;;;0.00;0.00;;;;;;;7.01;55.81;94266.03;5069250;28;20291;-59
2023/03/16 00:08:42;;;;;;;0.00;0.00;;;;;;;7.54;53.64;94251.31;5069741;28;20234;-61
2023/03/16 00:11:11;;;;;;;0.00;0.00;;;;;;;7.74;53.87;94267.84;5069046;28;20187;-60
2023/03/16 00:13:38;;;;;;;0.00;0.00;;;;;;;7.37;54.02;94266.31;5069912;28;20237;-59
2023/03/16 00:16:06;;;;;;;0.00;0.00;;;;;;;7.23;54.70;94271.16;5055909;28;20203;-61
2023/03/16 00:18:37;;;;;;;0.00;0.00;;;;;;;6.97;54.75;94272.78;5069880;28;20195;-62
2023/03/16 00:21:05;;;;;;;0.00;0.00;;;;;;;7.59;53.90;94275.56;5069876;28;20265;-60
2023/03/16 00:23:36;;;;;;;0.00;0.00;;;;;;;7.56;54.33;94286.50;5069900;28;20204;-61
2023/03/16 00:26:06;;;;;;;0.00;0.00;;;;;;;6.94;55.68;94286.31;5067802;28;20204;-59
2023/03/16 00:28:34;;;;;;;0.03;0.03;;;;;;;7.04;54.73;94283.78;5069535;28;20204;-58
2023/03/16 00:31:05;;;;;;;0.00;0.00;;;;;;;7.24;54.55;94274.56;5067716;28;20230;-60
2023/03/16 00:33:33;;;;;;;0.00;0.00;;;;;;;7.19;54.65;94281.31;5069424;28;20196;-60
2023/03/16 00:36:02;;;;;;;0.00;0.00;;;;;;;6.67;55.97;94272.53;5067405;28;20257;-59
2023/03/16 00:38:35;;;;;;;0.00;0.00;;;;;;;6.92;56.10;94283.16;5069107;28;20192;-60
2023/03/16 00:41:05;;;;;;;0.00;0.00;;;;;;;7.07;55.01;94290.31;5067517;28;20227;-61
2023/03/16 00:43:39;;;;;;;0.00;0.00;;;;;;;7.00;54.60;94287.94;5069595;28;20210;-59
2023/03/16 00:46:13;;;;;;;0.22;0.22;;;;;;;7.30;54.74;94289.22;5068287;28;20191;-60
2023/03/16 00:48:45;;;;;;;0.00;0.00;;;;;;;7.03;55.54;94290.03;5067904;28;20199;-60
2023/03/16 00:51:15;;;;;;;0.00;0.00;;;;;;;7.44;54.26;94295.56;5068305;28;20196;-60
2023/03/16 00:53:44;;;;;;;0.00;0.00;;;;;;;6.97;55.08;94298.06;5068872;28;20238;-60
2023/03/16 00:56:12;;;;;;;0.00;0.00;;;;;;;7.07;55.19;94298.94;5066574;28;20227;-60
2023/03/16 00:58:42;;;;;;;0.00;0.00;;;;;;;6.91;55.45;94299.84;5069349;28;20192;-61
2023/03/16 01:01:14;;;;;;;0.00;0.00;;;;;;;7.56;53.86;94307.38;5068895;28;20232;-60
2023/03/16 01:03:41;;;;;;;0.00;0.00;;;;;;;7.03;55.40;94305.66;5069384;28;20705;-61
2023/03/16 01:06:15;;;;;;;0.00;0.00;;;;;;;7.17;54.90;94300.84;5068881;28;20196;-60
2023/03/16 01:08:43;;;;;;;0.00;0.00;;;;;;;6.86;55.24;94304.97;5068278;28;20568;-62
2023/03/16 01:11:16;;;;;;;0.00;0.00;;;;;;;7.11;55.24;94300.00;5068692;28;20196;-65
2023/03/16 01:13:45;;;;;;;0.00;0.00;;;;;;;7.10;54.86;94303.63;5068483;28;20195;-61
2023/03/16 01:16:13;;;;;;;0.00;0.00;;;;;;;7.08;55.32;94305.69;5066867;28;20188;-62
2023/03/16 01:18:41;;;;;;;0.00;0.00;;;;;;;6.91;55.12;94297.22;5067120;28;20222;-60
2023/03/16 01:21:08;;;;;;;0.00;0.00;;;;;;;6.81;56.23;94299.72;5067342;28;20633;-61
2023/03/16 01:23:36;;;;;;;0.13;0.13;;;;;;;6.89;55.40;94295.88;5070553;28;20935;-61
2023/03/16 01:26:03;;;;;;;0.00;0.00;;;;;;;6.47;56.29;94313.16;5068029;28;20219;-61
2023/03/16 01:28:31;;;;;;;0.00;0.00;;;;;;;6.51;56.80;94306.44;5068866;28;20649;-60
2023/03/16 01:31:02;;;;;;;0.00;0.00;;;;;;;7.02;54.98;94308.53;5066565;28;20203;-62
2023/03/16 01:33:32;;;;;;;0.00;0.00;;;;;;;6.65;55.76;94311.03;5066851;28;20211;-62
2023/03/16 01:36:03;;;;;;;0.00;0.00;;;;;;;6.73;56.02;94313.16;5100302;28;20200;-61
2023/03/16 01:38:38;;;;;;;0.00;0.00;;;;;;;6.38;55.68;94317.22;5083956;28;20211;-60
2023/03/16 01:41:06;;;;;;;0.00;0.00;;;;;;;6.77;54.86;94313.50;5071729;28;20204;-59
2023/03/16 01:43:36;;;;;;;0.00;0.00;;;;;;;6.50;55.42;94317.88;5066682;28;20663;-60
2023/03/16 01:46:06;;;;;;;0.00;0.00;;;;;;;6.59;54.92;94322.41;5065943;28;20636;-61
2023/03/16 01:48:58;;;;;;;0.00;0.00;;;;;;;6.71;53.75;94324.88;5066918;28;20570;-62
2023/03/16 01:51:45;;;;;;;0.00;0.00;;;;;;;6.56;54.81;94328.09;5065834;28;20231;-61
2023/03/16 01:54:16;;;;;;;0.00;0.00;;;;;;;6.45;54.88;94320.41;5066976;28;20913;-61
2023/03/16 01:57:10;;;;;;;0.00;0.00;;;;;;;5.85;55.83;94321.25;5082781;28;20236;-58
2023/03/16 01:59:43;;;;;;;0.00;0.00;;;;;;;6.46;54.70;94333.19;5069597;28;20200;-60
2023/03/16 02:02:12;;;;;;;0.00;0.00;;;;;;;6.28;54.66;94336.09;5083117;28;20206;-61
2023/03/16 02:04:40;;;;;;;0.00;0.00;;;;;;;6.05;55.09;94339.72;5068138;28;20200;-61
2023/03/16 02:07:09;;;;;;;0.00;0.00;;;;;;;6.52;54.61;94339.22;5066333;28;20288;-59
2023/03/16 02:09:41;;;;;;;0.00;0.00;;;;;;;6.88;53.84;94347.19;5066485;28;20207;-60
2023/03/16 02:12:16;;;;;;;0.00;0.00;;;;;;;6.53;54.82;94341.59;5065631;28;20207;-59
2023/03/16 02:14:48;;;;;;;0.20;0.20;;;;;;;6.24;55.53;94344.63;5077550;28;20204;-60
2023/03/16 02:17:22;;;;;;;0.10;0.10;;;;;;;6.09;55.22;94343.41;5068948;28;20232;-61
2023/03/16 02:19:51;;;;;;;0.00;0.00;;;;;;;6.43;54.70;94357.09;5100211;28;20294;-60
2023/03/16 02:22:19;;;;;;;0.00;0.00;;;;;;;6.40;55.48;94355.00;5052771;28;20203;-60
2023/03/16 02:24:46;;;;;;;0.10;0.10;;;;;;;6.31;55.23;94364.25;5068172;28;20204;-62
2023/03/16 02:27:26;;;;;;;0.00;0.00;;;;;;;6.53;55.55;94370.22;5070618;28;20266;-61
2023/03/16 02:29:55;;;;;;;0.00;0.00;;;;;;;6.05;55.98;94362.34;5072651;28;20191;-61
2023/03/16 02:32:28;;;;;;;0.00;0.00;;;;;;;5.81;56.44;94360.94;5070112;28;20298;-59
2023/03/16 02:34:57;;;;;;;0.00;0.00;;;;;;;5.87;56.98;94370.41;5070158;28;20643;-60
2023/03/16 02:37:25;;;;;;;0.00;0.00;;;;;;;6.45;55.35;94373.25;5069825;28;20216;-59
2023/03/16 02:39:52;;;;;;;0.00;0.00;;;;;;;6.23;55.99;94363.84;5070111;28;20246;-60
2023/03/16 02:42:23;;;;;;;0.20;0.20;;;;;;;6.15;56.44;94372.88;5069822;28;20233;-61
2023/03/16 02:44:56;;;;;;;0.70;0.70;;;;;;;5.96;57.12;94379.38;5068761;28;20196;-60
2023/03/16 02:47:43;;;;;;;0.00;0.00;;;;;;;6.13;57.12;94380.91;5069401;28;20199;-59
2023/03/16 02:50:11;;;;;;;0.00;0.00;;;;;;;5.74;57.87;94381.09;5058950;28;20373;-59
2023/03/16 02:52:40;;;;;;;0.00;0.00;;;;;;;6.24;56.86;94379.22;5069712;28;20253;-62
2023/03/16 02:55:07;;;;;;;0.00;0.00;;;;;;;6.15;56.83;94378.88;5103647;28;20257;-60
2023/03/16 02:57:34;;;;;;;0.70;0.70;;;;;;;6.11;56.76;94387.41;5069106;28;20239;-60
2023/03/16 03:00:15;;;;;;;0.00;0.00;;;;;;;6.01;57.42;94387.25;5058988;28;20203;-63
2023/03/16 03:02:44;;;;;;;0.00;0.00;;;;;;;5.72;57.32;94383.94;5069560;28;20211;-60
2023/03/16 03:05:12;;;;;;;0.00;0.00;;;;;;;5.58;57.94;94387.09;5070521;28;20214;-59
2023/03/16 03:07:39;;;;;;;0.00;0.00;;;;;;;5.28;59.30;94392.59;5073141;28;20647;-60
2023/03/16 03:10:07;;;;;;;0.00;0.00;;;;;;;6.01;58.09;94392.44;5071632;28;20213;-60
2023/03/16 03:12:34;;;;;;;0.00;0.00;;;;;;;6.05;57.42;94403.94;5069559;28;20249;-60
2023/03/16 03:15:05;;;;;;;0.30;0.30;;;;;;;5.81;57.94;94402.53;5069139;28;20273;-61
2023/03/16 03:17:39;;;;;;;0.00;0.00;;;;;;;5.82;57.47;94401.50;5086075;28;20241;-60
2023/03/16 03:20:12;;;;;;;0.00;0.00;;;;;;;6.05;57.12;94407.34;5070665;28;20257;-60
2023/03/16 03:22:39;;;;;;;0.00;0.00;;;;;;;5.67;57.59;94409.88;5058902;28;20192;-60
2023/03/16 03:25:08;;;;;;;0.00;0.00;;;;;;;5.96;57.74;94410.59;5070734;28;20558;-60
2023/03/16 03:27:34;;;;;;;0.00;0.00;;;;;;;5.73;57.77;94413.34;5068750;28;20196;-60
2023/03/16 03:30:06;;;;;;;0.00;0.00;;;;;;;6.05;56.75;94401.34;5069530;28;20223;-60
2023/03/16 03:32:32;;;;;;;0.00;0.00;;;;;;;5.66;57.32;94408.28;5068836;28;20203;-61
2023/03/16 03:34:59;;;;;;;0.00;0.00;;;;;;;5.87;57.08;94412.00;5069077;28;20739;-59
2023/03/16 03:37:28;;;;;;;0.00;0.00;;;;;;;5.43;58.27;94416.22;5068370;28;20226;-59
2023/03/16 03:39:55;;;;;;;0.00;0.00;;;;;;;5.06;58.82;94405.47;5069033;28;20204;-60
2023/03/16 03:42:22;;;;;;;0.00;0.00;;;;;;;5.52;57.99;94420.03;5085787;28;20583;-60
2023/03/16 03:44:51;;;;;;;0.00;0.00;;;;;;;5.24;58.74;94432.28;5070459;28;20301;-59
2023/03/16 03:47:18;;;;;;;0.00;0.00;;;;;;;5.11;59.41;94426.31;5068465;28;20688;-60
2023/03/16 03:49:45;;;;;;;0.00;0.00;;;;;;;5.18;58.48;94421.00;5069946;28;20703;-60
2023/03/16 03:52:12;;;;;;;0.00;0.00;;;;;;;5.28;57.92;94439.34;5068572;28;20195;-59
2023/03/16 03:54:39;;;;;;;0.00;0.00;;;;;;;5.47;57.32;94442.53;5070235;28;20619;-60
2023/03/16 03:57:12;;;;;;;0.00;0.00;;;;;;;4.98;58.81;94449.97;5069233;28;20913;-59
2023/03/16 03:59:42;;;;;;;0.00;0.00;;;;;;;5.49;57.98;94456.06;5068937;28;20203;-61
2023/03/16 04:02:38;;;;;;;0.08;0.08;;;;;;;5.33;58.05;94451.66;5069718;28;20204;-60
2023/03/16 04:05:13;;;;;;;0.00;0.00;;;;;;;4.95;58.99;94455.63;5068971;28;20236;-60
2023/03/16 04:07:40;;;;;;;0.00;0.00;;;;;;;4.65;59.61;94444.66;5068156;28;20678;-59
2023/03/16 04:10:10;;;;;;;0.00;0.00;;;;;;;5.29;58.41;94455.72;5068812;28;20207;-61
2023/03/16 04:12:40;;;;;;;0.00;0.00;;;;;;;5.46;58.33;94456.53;5084793;28;20639;-60
2023/03/16 04:15:11;;;;;;;0.30;0.30;;;;;;;5.28;58.18;94451.53;5068503;28;20273;-60
2023/03/16 04:17:56;;;;;;;0.00;0.00;;;;;;;5.11;58.71;94449.69;5058896;28;20217;-59
2023/03/16 04:20:24;;;;;;;0.00;0.00;;;;;;;5.36;58.55;94451.16;5069948;28;20230;-60
2023/03/16 04:22:57;;;;;;;0.00;0.00;;;;;;;5.83;56.81;94452.50;5067733;28;20203;-61
2023/03/16 04:25:25;;;;;;;0.00;0.00;;;;;;;5.38;57.75;94459.53;5069636;28;20223;-61
2023/03/16 04:27:53;;;;;;;0.00;0.00;;;;;;;5.43;58.31;94472.59;5069011;28;20681;-61
2023/03/16 04:30:23;;;;;;;0.17;0.17;;;;;;;5.43;57.20;94462.19;5068909;28;20212;-62
2023/03/16 04:32:54;;;;;;;0.00;0.00;;;;;;;5.38;57.67;94475.09;5097984;28;20261;-60
2023/03/16 04:35:22;;;;;;;0.00;0.00;;;;;;;5.24;58.01;94474.59;5101199;28;20221;-60
2023/03/16 04:37:52;;;;;;;0.00;0.00;;;;;;;5.46;57.51;94485.91;5067131;28;20229;-60
2023/03/16 04:40:24;;;;;;;;;;;;;;;5.63;57.17;94481.53;5068206;28;20201;-60
2023/03/16 04:43:01;;;;;;;;;;;;;;;5.67;56.56;94484.44;5068001;28;19981;-59
2023/03/16 04:45:31;;;;;;;;;;;;;;;6.02;56.35;94472.06;5067907;28;19955;-62
2023/03/16 04:47:58;;;;;;;;;;;;;;;6.03;56.42;94489.22;5066976;28;19997;-59
2023/03/16 04:50:25;;;;;;;;;;;;;;;5.68;57.16;94497.19;5072322;28;19957;-61
2023/03/16 04:52:53;;;;;;;;;;;;;;;5.35;57.23;94506.72;5069224;28;19961;-60
2023/03/16 04:55:21;;;;;;;;;;;;;;;5.66;57.32;94514.03;5068167;28;19965;-60
2023/03/16 04:57:49;;;;;;;;;;;;;;;5.47;57.51;94516.06;5064809;28;20427;-60
2023/03/16 05:00:19;;;;;;;;;;;;;;;5.63;57.74;94514.53;5064338;28;19942;-59
2023/03/16 05:03:09;;;;;;;;;;;;;;;5.42;57.77;94518.56;5062516;28;19963;-62
2023/03/16 05:05:38;;;;;;;;;;;;;;;5.44;57.27;94516.53;5068006;28;19988;-61
2023/03/16 05:08:06;;;;;;;;;;;;;;;5.72;57.18;94510.50;5089774;28;19958;-61
2023/03/16 05:10:35;;;;;;;;;;;;;;;5.58;57.14;94522.22;5082469;28;19980;-60
2023/03/16 05:13:01;;;;;;;;;;;;;;;5.67;56.53;94520.84;5069384;28;20461;-60
2023/03/16 05:15:28;;;;;;;;;;;;;;;6.10;55.63;94521.84;5068077;28;19953;-61
2023/03/16 05:18:05;;;;;;;;;;;;;;;5.59;56.44;94518.59;5068410;28;19956;-61
2023/03/16 05:20:32;;;;;;;;;;;;;;;5.87;56.09;94532.41;5068061;28;20568;-61
2023/03/16 05:23:01;;;;;;;;;;;;;;;5.67;55.66;94541.63;5065868;28;19989;-61
2023/03/16 05:25:34;;;;;;;;;;;;;;;5.73;55.55;94518.06;5068333;28;19967;-63
2023/03/16 05:28:04;;;;;;;;;;;;;;;5.92;56.01;94535.09;5068575;28;19952;-61
2023/03/16 05:30:37;;;;;;;;;;;;;;;5.84;55.78;94545.06;5068154;28;19974;-61
2023/03/16 05:33:07;;;;;;;;;;;;;;;5.56;56.58;94545.06;5102226;28;19953;-61
2023/03/16 05:35:34;;;;;;;;;;;;;;;5.53;56.45;94553.34;5101150;28;20046;-60
2023/03/16 05:38:05;;;;;;;;;;;;;;;5.62;56.00;94554.53;5051056;28;19955;-60
2023/03/16 05:40:36;;;;;;;;;;;;;;;5.66;56.19;94555.63;5071901;28;19990;-59
2023/03/16 05:43:12;;;;;;;;;;;;;;;5.36;57.48;94557.69;5092301;28;19950;-63
2023/03/16 05:45:45;;;;;;;;;;;;;;;5.68;56.70;94564.78;5102261;28;19984;-65
2023/03/16 05:48:15;;;;;;;;;;;;;;;5.98;56.62;94560.16;5102224;28;19946;-61
2023/03/16 05:50:46;;;;;;;;;;;;;;;6.01;55.78;94564.09;5066495;28;19959;-63
2023/03/16 05:53:16;;;;;;;;;;;;;;;5.69;55.13;94539.59;5068159;28;20378;-61
2023/03/16 05:55:43;;;;;;;;;;;;;;;5.78;55.97;94571.97;5067037;28;19999;-61
2023/03/16 05:58:13;;;;;;;;;;;;;;;5.88;55.74;94590.38;5067261;28;19975;-63
2023/03/16 06:00:42;;;;;;;;;;;;;;;5.61;56.47;94573.75;5103648;28;19960;-61
2023/03/16 06:03:23;;;;;;;;;;;;;;;5.96;55.48;94580.41;5071931;28;19960;-62
2023/03/16 06:05:52;;;;;;;;;;;;;;;5.43;57.14;94592.09;5073294;28;19991;-62
2023/03/16 06:08:27;;;;;;;;;;;;;;;5.75;56.47;94581.03;5106869;28;19954;-62
2023/03/16 06:10:59;;;;;;;;;;;;;;;5.83;56.83;94588.50;5105471;28;19949;-63
2023/03/16 06:13:26;;;;;;;;;;;;;;;6.29;55.13;94584.06;5080689;28;20067;-62
2023/03/16 06:15:53;;;;;;;;;;;;;;;5.89;56.53;94592.72;5072902;28;20708;-61
2023/03/16 06:18:20;;;;;;;;;;;;;;;5.87;56.34;94597.41;5071749;28;20397;-61
2023/03/16 06:20:47;;;;;;;;;;;;;;;6.40;55.60;94601.41;5071604;28;20401;-62
2023/03/16 06:23:14;;;;;;;0.00;0.00;;;;;;;6.43;54.78;94604.31;5071652;28;20471;-61
2023/03/16 06:25:41;;;;;;;0.00;0.00;;;;;;;6.09;55.17;94597.53;5072813;28;20237;-62
2023/03/16 06:28:10;;;;;;;0.17;0.17;;;;;;;6.07;55.29;94609.97;5069740;28;20207;-62
2023/03/16 06:30:39;;;;;;;0.00;0.00;;;;;;;6.61;54.63;94616.28;5068617;28;20207;-61
2023/03/16 06:33:07;;;;;;;0.00;0.00;;;;;;;6.32;54.27;94612.19;5069136;28;20191;-61
2023/03/16 06:35:34;;;;;;;0.30;0.30;;;;;;;5.75;55.12;94619.22;5071744;28;20226;-61
2023/03/16 06:38:11;;;;;;;0.00;0.00;;;;;;;6.39;54.69;94624.03;5068904;28;20296;-60
2023/03/16 06:40:55;;;;;;;0.00;0.00;;;;;;;6.22;54.59;94631.03;5069872;28;20216;-61
2023/03/16 06:43:22;;;;;;;0.22;0.22;;;;;;;6.21;54.48;94629.44;5071126;28;20195;-61
2023/03/16 06:45:50;;;;;;;0.90;0.90;;;;;;;6.20;54.59;94630.47;5070587;28;20214;-61
2023/03/16 06:48:17;;;;;;;0.00;0.00;;;;;;;5.96;54.78;94639.41;5071323;28;20192;-61
2023/03/16 06:50:45;;;;;;;0.00;0.00;;;;;;;6.15;54.67;94640.78;5070823;28;20227;-60
2023/03/16 06:53:16;;;;;;;0.20;0.20;;;;;;;6.31;54.78;94642.66;5071340;28;20358;-61
2023/03/16 06:55:43;;;;;;;0.00;0.00;;;;;;;6.00;54.68;94645.75;5070722;28;20192;-61
2023/03/16 06:58:10;;;;;;;0.00;0.00;;;;;;;5.87;54.64;94643.41;5072294;28;20631;-62
2023/03/16 07:00:37;;;;;;;0.00;0.00;;;;;;;5.64;53.76;94659.81;5070850;28;20683;-61
2023/03/16 07:03:04;;;;;;;0.00;0.00;;;;;;;5.80;54.80;94661.69;5072554;28;20241;-61
2023/03/16 07:05:34;;;;;;;0.00;0.00;;;;;;;5.59;54.79;94643.34;5070614;28;20211;-61
2023/03/16 07:08:03;;;;;;;0.00;0.00;;;;;;;5.93;53.83;94661.47;5071306;28;20200;-61
2023/03/16 07:10:31;;;;;;;0.08;0.08;;;;;;;5.77;54.81;94658.78;5071449;28;20204;-62
2023/03/16 07:12:58;;;;;;;0.00;0.00;;;;;;;5.74;54.67;94673.03;5070113;28;20192;-61
2023/03/16 07:15:25;;;;;;;0.00;0.00;;;;;;;5.56;55.23;94678.41;5070766;28;20291;-60
2023/03/16 07:17:55;;;;;;;0.00;0.00;;;;;;;5.77;54.83;94671.78;5070277;28;20227;-62
2023/03/16 07:20:22;;;;;;;0.00;0.00;;;;;;;5.82;55.17;94666.69;5070461;28;20637;-61
2023/03/16 07:22:49;;;;;;;0.00;0.00;;;;;;;5.87;55.28;94683.22;5071133;28;20204;-63
2023/03/16 07:25:16;;;;;;;0.00;0.00;;;;;;;5.51;55.22;94680.88;5070701;28;20195;-62
2023/03/16 07:27:48;;;;;;;0.00;0.00;;;;;;;5.86;55.53;94691.22;5069970;28;20203;-61
2023/03/16 07:30:24;;;;;;;0.00;0.00;;;;;;;5.84;55.12;94667.25;5069996;28;20654;-61
2023/03/16 07:32:51;;;;;;;0.00;0.00;;;;;;;5.47;55.39;94694.56;5071316;28;20675;-61
2023/03/16 07:35:21;;;;;;;0.00;0.00;;;;;;;5.74;55.20;94693.03;5070564;28;20195;-61
2023/03/16 07:37:49;;;;;;;0.00;0.00;;;;;;;6.44;53.79;94694.38;5069462;28;20615;-61
2023/03/16 07:40:17;;;;;;;0.00;0.00;;;;;;;6.27;54.51;94697.97;5070009;28;20640;-62
2023/03/16 07:42:44;;;;;;;0.00;0.00;;;;;;;5.89;55.51;94690.78;5069157;28;20203;-62
2023/03/16 07:45:26;;;;;;;0.10;0.10;;;;;;;5.32;56.23;94691.63;5070209;28;20312;-60
2023/03/16 07:47:54;;;;;;;0.10;0.10;;;;;;;6.09;54.38;94691.16;5068276;28;20192;-62
2023/03/16 07:50:36;;;;;;;0.00;0.00;;;;;;;6.14;54.21;94699.84;5069666;28;20200;-62
2023/03/16 07:53:04;;;;;;;0.10;0.10;;;;;;;6.15;53.91;94695.41;5069933;28;20270;-61
2023/03/16 07:55:35;;;;;;;0.03;0.03;;;;;;;6.50;53.65;94703.84;5070152;28;20655;-61
2023/03/16 07:58:05;;;;;;;0.00;0.00;;;;;;;6.61;53.03;94702.19;5071297;28;20247;-61
2023/03/16 08:00:35;;;;;;;0.00;0.00;;;;;;;6.32;53.67;94696.25;5074029;28;20204;-63
2023/03/16 08:03:02;;;;;;;;;;;;;;;6.10;53.60;94703.13;5071655;28;20273;-60
2023/03/16 08:05:31;;;;;;;;;;;;;;;6.31;53.24;94712.91;5069967;28;20003;-60
2023/03/16 08:08:00;;;;;;;;;;;;;;;6.77;52.49;94710.03;5069853;28;19956;-61
2023/03/16 08:10:29;;;;;;;;;;;;;;;7.08;51.92;94706.88;5069860;28;19941;-62
2023/03/16 08:13:03;;;;;;;;;;;;;;;7.02;52.27;94705.25;5069948;28;19954;-61
2023/03/16 08:15:33;;;;;;;;;;;;;;;7.00;51.28;94715.09;5069265;28;20064;-61
2023/03/16 08:18:08;;;;;;;;;;;;;;;7.08;51.91;94717.28;5069956;28;20317;-62
2023/03/16 08:20:35;;;;;;;;;;;;;;;6.71;53.02;94721.41;5072712;28;19953;-62
2023/03/16 08:23:02;;;;;;;;;;;;;;;7.17;51.62;94720.31;5059365;28;20340;-61
2023/03/16 08:25:36;;;;;;;;;;;;;;;6.40;52.80;94714.09;5068211;28;19947;-62
2023/03/16 08:28:11;;;;;;;;;;;;;;;7.10;52.21;94730.06;5069360;28;20308;-63
2023/03/16 08:30:45;;;;;;;;;;;;;;;7.10;51.93;94730.06;5069457;28;20051;-62
2023/03/16 08:33:28;;;;;;;;;;;;;;;6.87;52.12;94731.03;5069458;28;20038;-64
2023/03/16 08:35:57;;;;;;;;;;;;;;;6.80;52.50;94735.63;5068223;28;19951;-60
2023/03/16 08:38:24;;;;;;;;;;;;;;;7.09;52.71;94734.53;5070666;28;19963;-62
2023/03/16 08:40:51;;;;;;;;;;;;;;;7.22;52.39;94737.81;5069004;28;19954;-63
2023/03/16 08:43:20;;;;;;;;;;;;;;;7.12;52.04;94733.25;5069563;28;20037;-62
2023/03/16 08:45:48;;;;;;;;;;;;;;;7.39;51.72;94733.41;5068677;28;19951;-61
2023/03/16 08:48:17;;;;;;;;;;;;;;;7.45;50.75;94737.63;5069227;28;19964;-61
2023/03/16 08:50:47;;;;;;;;;;;;;;;7.12;50.88;94748.88;5068803;28;19964;-61
2023/03/16 08:53:13;;;;;;;;;;;;;;;7.26;51.49;94744.13;5070341;28;20445;-63
2023/03/16 08:55:40;;;;;;;;;;;;;;;7.12;51.19;94746.25;5070870;28;20054;-62
2023/03/16 08:58:07;;;;;;;;;;;;;;;7.17;50.30;94744.53;5069822;28;20774;-61
2023/03/16 09:00:34;;;;;;;;;;;;;;;7.31;49.69;94752.03;5074599;28;20025;-64
2023/03/16 09:03:01;;;;;;;;;;;;;;;7.40;49.82;94755.81;5070044;28;20463;-62
2023/03/16 09:05:29;;;;;;;;;;;;;;;7.37;49.15;94761.50;5070591;28;19932;-61
2023/03/16 09:07:56;;;;;;;;;;;;;;;8.04;48.86;94742.06;5070182;28;19967;-61
2023/03/16 09:10:24;;;;;;;;;;;;;;;8.00;47.70;94740.97;5070190;28;19928;-62
2023/03/16 09:12:51;;;;;;;;;;;;;;;8.27;47.71;94752.28;5057019;28;19970;-61
2023/03/16 09:15:19;;;;;;;;;;;;;;;8.25;46.99;94759.56;5069410;28;20479;-61
2023/03/16 09:17:46;;;;;;;;;;;;;;;7.49;47.50;94768.22;5069606;28;20537;-63
2023/03/16 09:20:19;;;;;;;0.00;0.00;;;;;;;7.64;47.68;94765.03;5067716;28;20474;-62
2023/03/16 09:22:54;;;;;;;0.20;0.20;;;;;;;7.95;47.53;94773.03;5067934;28;20216;-61
2023/03/16 09:25:22;;;;;;;0.40;0.40;;;;;;;7.39;47.91;94760.22;5069233;28;20215;-62
2023/03/16 09:27:49;;;;;;;0.20;0.20;;;;;;;7.44;47.98;94757.72;5068624;28;20219;-62
2023/03/16 09:30:17;;;;;;;0.10;0.10;;;;;;;7.78;47.44;94758.44;5070308;28;20501;-62
2023/03/16 09:32:47;;;;;;;0.13;0.13;;;;;;;7.45;46.66;94742.84;5069007;28;20447;-61
2023/03/16 09:35:14;;;;;;;0.10;0.10;;;;;;;7.28;47.99;94762.94;5069439;28;20446;-61
2023/03/16 09:37:41;;;;;;;0.30;0.30;;;;;;;7.80;47.47;94761.59;5069286;28;20239;-61
2023/03/16 09:40:27;;;;;;;0.13;0.13;;;;;;;7.93;47.43;94762.03;5057741;28;21014;-61
2023/03/16 09:43:26;;;;;;;0.10;0.10;;;;;;;7.93;47.73;94767.25;5069087;28;20539;-60
2023/03/16 09:46:02;;;;;;;0.20;0.20;;;;;;;8.31;47.00;94765.63;5068342;28;20560;-61
2023/03/16 09:48:34;;;;;;;0.13;0.13;;;;;;;7.92;47.35;94768.28;5069726;28;20869;-61
2023/03/16 09:51:06;;;;;;;0.17;0.17;;;;;;;7.98;47.26;94764.72;5069041;28;20456;-61
2023/03/16 09:53:35;;;;;;;;;;;;;;;8.09;47.11;94768.22;5069385;28;20461;-61
2023/03/16 09:56:08;;;;;;;;;;;;;;;7.92;47.31;94780.53;5069436;28;19924;-62
2023/03/16 09:58:35;;;;;;;;;;;;;;;8.16;47.11;94771.44;5069577;28;20360;-63
2023/03/16 10:01:20;;;;;;;;;;;;;;;7.54;48.18;94770.09;5069381;28;19920;-63
2023/03/16 10:04:11;;;;;;;;;;;;;;;8.08;47.34;94774.50;5070966;28;19965;-60
2023/03/16 10:06:45;;;;;;;;;;;;;;;8.50;47.45;94778.16;5054773;28;19920;-62
2023/03/16 10:09:25;;;;;;;;;;;;;;;8.03;48.19;94771.78;5069606;28;19920;-62
2023/03/16 10:11:53;;;;;;;;;;;;;;;7.53;48.91;94784.16;5069174;28;19924;-61
2023/03/16 10:14:31;;;;;;;;;;;;;;;7.87;48.80;94783.88;5069939;28;20349;-61
2023/03/16 10:17:16;;;;;;;0.70;0.70;;;;;;;7.79;49.03;94780.88;5068833;28;19924;-63
2023/03/16 10:19:58;;;;;;;0.65;0.65;;;;;;;7.61;49.29;94778.56;5069178;28;20250;-63
2023/03/16 10:22:33;;;;;;;0.23;0.23;;;;;;;8.16;47.80;94781.88;5055363;28;20226;-62
2023/03/16 10:25:03;;;;;;;0.20;0.20;;;;;;;7.75;48.71;94782.41;5069548;28;20260;-63
2023/03/16 10:27:32;;;;;;;0.30;0.30;;;;;;;7.94;47.72;94773.25;5068226;28;20646;-63
2023/03/16 10:30:02;;;;;;;0.13;0.13;;;;;;;8.26;47.30;94776.03;5068874;28;20725;-64
2023/03/16 10:32:31;;;;;;;;;;;;;;;8.32;46.21;94775.81;5069239;28;20472;-64
2023/03/16 10:35:05;;;;;;;0.00;0.00;;;;;;;8.40;46.58;94783.25;5069292;28;20478;-61
2023/03/16 10:37:32;;;;;;;;;;;;;;;8.45;46.01;94780.69;5069096;28;20215;-61
2023/03/16 10:39:59;;;;;;;;;;;;;;;8.64;45.64;94768.88;5069664;28;20026;-65
2023/03/16 10:42:26;;;;;;;;;;;;;;;8.07;46.96;94778.91;5069322;28;20069;-63
2023/03/16 10:44:57;;;;;;;;;;;;;;;8.63;45.77;94766.53;5070740;28;19935;-63
2023/03/16 10:47:28;;;;;;;;;;;;;;;8.68;46.43;94763.97;5070508;28;19924;-62
2023/03/16 10:49:55;;;;;;;;;;;;;;;8.19;46.71;94768.34;5072698;28;19924;-61
2023/03/16 10:52:39;;;;;;;;;;;;;;;8.28;46.78;94774.75;5072420;28;19993;-61
2023/03/16 10:55:28;;;;;;;;;;;;;;;8.11;47.49;94774.00;5072875;28;20341;-62
2023/03/16 10:57:55;;;;;;;;;;;;;;;8.22;46.77;94778.31;5072039;28;20045;-63
2023/03/16 11:00:33;;;;;;;;;;;;;;;8.51;46.72;94779.72;5073109;28;20437;-61
2023/03/16 11:03:11;;;;;;;1.58;1.50;;;;;;;8.81;46.52;94769.56;5072674;28;19951;-62
2023/03/16 11:05:38;;;;;;;1.27;1.27;;;;;;;8.75;45.80;94780.22;5071981;28;20292;-62
2023/03/16 11:08:10;;;;;;;0.93;0.93;;;;;;;8.91;46.00;94772.28;5071888;28;20496;-62
2023/03/16 11:10:41;;;;;;;0.43;0.43;;;;;;;8.35;45.45;94751.06;5071304;28;20460;-62
2023/03/16 11:13:21;;;;;;;0.30;0.30;;;;;;;8.38;45.79;94785.31;5071891;28;20200;-62
2023/03/16 11:15:57;;;;;;;0.32;0.32;;;;;;;8.73;45.72;94780.47;5070939;28;20665;-62
2023/03/16 11:18:42;;;;;;;0.22;0.22;;;;;;;8.03;46.32;94777.00;5070592;28;20223;-62
2023/03/16 11:21:48;;;;;;;0.20;0.20;;;;;;;8.34;45.71;94780.84;5060534;28;20229;-61
2023/03/16 11:24:22;;;;;;;0.40;0.37;;;;;;;8.21;45.15;94780.13;5059980;28;20444;-63
2023/03/16 11:26:54;;;;;;;;;;;;;;;8.17;45.84;94773.81;5071404;28;20448;-62
2023/03/16 11:29:26;;;;;;;;;;;;;;;8.25;45.30;94774.47;5072361;28;20007;-61
2023/03/16 11:31:58;;;;;;;;;;;;;;;8.46;45.58;94777.06;5071333;28;20306;-62
2023/03/16 11:34:27;;;;;;;;;;;;;;;8.20;45.17;94772.53;5072169;28;19928;-62
2023/03/16 11:36:56;;;;;;;0.00;0.00;;;;;;;8.66;45.80;94772.03;5070960;28;20476;-62
2023/03/16 11:39:32;;;;;;;0.17;0.17;;;;;;;8.64;44.85;94768.09;5071465;28;20712;-61
2023/03/16 11:42:15;;;;;;;0.10;0.10;;;;;;;8.38;44.89;94789.72;5071351;28;20445;-62
2023/03/16 11:45:00;;;;;;;0.17;0.17;;;;;;;8.24;44.99;94776.28;5071139;28;20949;-62
2023/03/16 11:48:14;;;;;;;0.27;0.27;;;;;;;8.63;44.71;94784.81;5071186;28;20492;-61
2023/03/16 11:50:57;;;;;;;0.30;0.30;;;;;;;8.62;44.64;94781.41;5069579;28;20453;-61
2023/03/16 11:53:49;;;;;;;0.45;0.45;;;;;;;8.98;44.39;94775.47;5071491;28;20449;-62
2023/03/16 11:56:30;;;;;;;0.47;0.47;;;;;;;9.02;44.44;94792.25;5070475;28;20240;-62
2023/03/16 11:59:01;;;;;;;;;;;;;;;8.59;44.55;94781.91;5071534;28;20205;-62
2023/03/16 12:01:40;;;;;;;0.10;0.10;;;;;;;8.60;44.99;94798.34;5070478;28;20529;-62
2023/03/16 12:04:30;;;;;;;0.88;0.85;;;;;;;8.85;43.71;94788.94;5071305;28;20208;-62
2023/03/16 12:07:00;;;;;;;;;;;;;;;8.43;44.67;94793.19;5071453;28;20211;-62
2023/03/16 12:09:36;;;;;;;;;;;;;;;8.48;45.27;94795.88;5071200;28;19981;-63
2023/03/16 12:12:06;;;;;;;;;;;;;;;8.42;44.96;94802.06;5072092;28;20546;-63
2023/03/16 12:14:36;;;;;;;;;;;;;;;8.07;45.96;94793.78;5072593;28;19970;-61
2023/03/16 12:17:13;;;;;;;;;;;;;;;8.11;45.60;94794.88;5070886;28;20272;-61
2023/03/16 12:19:42;;;;;;;;;;;;;;;8.16;45.72;94798.34;5069689;28;19924;-62
2023/03/16 12:22:18;;;;;;;;;;;;;;;8.14;45.54;94800.38;5071051;28;19943;-62
2023/03/16 12:24:48;;;;;;;;;;;;;;;8.38;44.83;94803.59;5071193;28;19970;-63
2023/03/16 12:27:17;;;;;;;;;;;;;;;8.51;45.20;94807.63;5070907;28;19924;-61